Time;durP1;ratioP1;P1;durP2;ratioP2;P2;SDS_P1;SDS_P2;PMS_P1;PMS_P2;Temp;Humidity;BMP_temperature;BMP_pressure;BME280_temperature;BME280_humidity;BME280_pressure;Samples;Min_cycle;Max_cycle;Signal;HPM_P1;HPM_P2
2022/09/03 14:17:04;;;;;;;2.55;0.70;;;25.10;99.90;;;;;;5135074;22;20135;-72
2022/09/03 14:20:05;;;;;;;2.88;0.80;;;25.00;99.90;;;;;;5109834;28;20122;-75
2022/09/03 14:22:49;;;;;;;1.88;0.77;;;25.20;99.90;;;;;;5111280;28;20114;-77
2022/09/03 14:25:18;;;;;;;2.20;0.73;;;25.30;99.90;;;;;;5114370;28;20680;-76
2022/09/03 14:27:44;;;;;;;0.98;0.80;;;25.20;99.90;;;;;;5131869;27;20035;-74
2022/09/03 14:30:15;;;;;;;2.22;0.90;;;25.10;99.90;;;;;;5132122;27;20015;-74
2022/09/03 14:32:50;;;;;;;0.90;0.70;;;25.20;99.90;;;;;;5131509;28;20157;-76
2022/09/03 14:35:42;;;;;;;3.70;1.15;;;25.10;99.90;;;;;;5131878;27;20037;-76
2022/09/03 14:38:16;;;;;;;1.00;0.63;;;25.00;99.90;;;;;;5068784;28;20047;-76
2022/09/03 14:40:53;;;;;;;1.25;0.70;;;24.60;99.90;;;;;;5068960;28;20108;-76
2022/09/03 14:43:41;;;;;;;2.08;0.68;;;24.50;99.90;;;;;;5069083;28;20029;-76
2022/09/03 14:46:19;;;;;;;2.40;1.13;;;24.50;99.90;;;;;;5068115;28;20025;-81
2022/09/03 14:49:03;;;;;;;2.20;0.60;;;24.60;99.90;;;;;;5051987;28;20040;-77
2022/09/03 14:52:26;;;;;;;1.38;1.00;;;24.70;99.90;;;;;;5068340;28;20421;-77
2022/09/03 14:55:04;;;;;;;3.65;1.15;;;24.50;99.90;;;;;;4939424;28;20417;-80
2022/09/03 14:57:32;;;;;;;2.15;0.70;;;24.40;99.90;;;;;;4992035;28;20022;-77
2022/09/03 15:00:07;;;;;;;7.70;2.72;;;24.30;99.90;;;;;;5008440;28;20064;-77
2022/09/03 15:02:33;;;;;;;1.77;1.25;;;24.20;99.90;;;;;;5009795;28;20046;-79
2022/09/03 15:05:10;;;;;;;1.73;1.00;;;23.90;99.90;;;;;;5010267;28;20094;-80
2022/09/03 15:07:58;;;;;;;1.17;0.70;;;23.70;99.90;;;;;;5009544;28;20076;-80
2022/09/03 15:10:41;;;;;;;2.83;1.40;;;23.70;99.90;;;;;;5010264;28;20042;-80
2022/09/03 15:13:19;;;;;;;2.45;0.90;;;23.80;99.90;;;;;;5010647;28;20471;-80
2022/09/03 15:15:58;;;;;;;1.83;0.70;;;23.70;99.90;;;;;;5061438;28;20063;-79
2022/09/03 15:18:48;;;;;;;1.73;1.00;;;23.70;99.90;;;;;;5070837;28;20497;-82
2022/09/03 15:21:23;;;;;;;3.38;0.98;;;23.60;99.90;;;;;;5071668;28;20036;-82
2022/09/03 15:24:16;;;;;;;1.20;0.80;;;23.60;99.90;;;;;;5071064;28;20128;-81
2022/09/03 15:26:55;;;;;;;1.17;0.70;;;23.50;99.90;;;;;;5066383;28;20032;-81
2022/09/03 15:29:32;;;;;;;2.97;0.90;;;23.50;99.90;;;;;;5057363;28;20028;-80
2022/09/03 15:32:15;;;;;;;3.10;0.85;;;23.40;99.90;;;;;;5119267;28;20092;-80
2022/09/03 15:35:12;;;;;;;1.73;0.77;;;23.30;99.90;;;;;;5120465;28;20024;-80
2022/09/03 15:37:44;;;;;;;1.60;0.90;;;23.30;99.90;;;;;;5119394;28;20028;-80
2022/09/03 15:40:20;;;;;;;1.77;0.90;;;23.20;99.90;;;;;;5120139;28;20019;-84
2022/09/03 15:42:50;;;;;;;3.33;0.90;;;23.10;99.90;;;;;;5134015;28;20053;-82
2022/09/03 15:45:35;;;;;;;1.25;0.90;;;23.10;99.90;;;;;;5120949;28;20062;-82
2022/09/03 15:48:28;;;;;;;3.75;1.30;;;23.10;99.90;;;;;;5139196;28;20024;-83
2022/09/03 15:51:10;;;;;;;2.33;0.90;;;23.00;99.90;;;;;;5140711;28;20023;-83
2022/09/03 15:53:40;;;;;;;2.15;1.30;;;23.00;99.90;;;;;;5139976;28;20539;-84
2022/09/03 15:56:33;;;;;;;5.07;0.98;;;23.00;99.90;;;;;;5140523;28;20031;-85
2022/09/03 15:59:32;;;;;;;1.13;0.95;;;23.20;99.90;;;;;;5139194;28;20028;-85
2022/09/03 16:02:09;;;;;;;1.65;1.10;;;23.20;99.90;;;;;;5117941;28;20034;-86
2022/09/03 16:05:04;;;;;;;1.92;1.10;;;23.30;99.90;;;;;;5119131;28;20073;-83
2022/09/03 16:07:36;;;;;;;2.35;1.42;;;23.20;99.90;;;;;;5122077;28;20117;-86
2022/09/03 16:10:14;;;;;;;1.67;1.05;;;23.10;99.90;;;;;;5118190;28;20019;-83
2022/09/03 16:12:51;;;;;;;3.40;1.20;;;23.10;99.90;;;;;;5119176;28;20019;-84
2022/09/03 16:15:33;;;;;;;2.05;1.63;;;23.20;99.90;;;;;;5115686;28;20024;-84
2022/09/03 16:18:12;;;;;;;2.38;1.20;;;23.10;99.90;;;;;;5117505;28;20379;-87
2022/09/03 16:20:42;;;;;;;2.35;1.90;;;23.10;99.90;;;;;;5119429;28;20423;-88
2022/09/03 16:23:14;;;;;;;3.83;1.50;;;23.30;99.90;;;;;;5117474;28;20126;-84
2022/09/03 16:26:04;;;;;;;1.45;1.10;;;23.10;99.90;;;;;;5116297;28;20080;-83
2022/09/03 16:28:38;;;;;;;4.13;1.02;;;23.20;99.90;;;;;;5116896;28;20472;-83
2022/09/03 16:31:39;;;;;;;2.35;1.17;;;23.30;99.90;;;;;;5115970;28;20020;-84
2022/09/03 16:34:54;;;;;;;1.00;0.90;;;23.30;99.90;;;;;;5115064;28;20019;-86
2022/09/03 16:37:39;;;;;;;1.58;1.10;;;23.20;99.90;;;;;;5115392;28;20027;-85
2022/09/03 16:40:14;;;;;;;2.45;1.30;;;23.20;99.90;;;;;;5114013;28;20034;-84
2022/09/03 16:43:11;;;;;;;1.00;0.88;;;23.10;99.90;;;;;;5115311;28;20399;-84
2022/09/03 16:46:00;;;;;;;1.45;0.80;;;23.00;99.90;;;;;;5115226;28;20034;-82
2022/09/03 16:48:53;;;;;;;1.70;1.17;;;22.80;99.90;;;;;;5115826;28;20053;-83
2022/09/03 16:51:33;;;;;;;3.05;1.30;;;22.60;99.90;;;;;;5115922;28;20606;-83
2022/09/03 16:54:26;;;;;;;2.08;1.50;;;22.50;99.90;;;;;;5117732;28;20088;-83
2022/09/03 16:57:10;;;;;;;1.90;1.23;;;22.40;99.90;;;;;;5116690;28;20391;-83
2022/09/03 17:00:04;;;;;;;3.25;1.60;;;22.40;99.90;;;;;;5115177;28;20472;-83
2022/09/03 17:02:57;;;;;;;2.17;1.10;;;22.30;99.90;;;;;;5115584;28;20023;-83
2022/09/03 17:05:42;;;;;;;1.55;1.13;;;22.10;99.90;;;;;;5114389;28;20028;-83
2022/09/03 17:08:07;;;;;;;1.75;1.23;;;22.10;99.90;;;;;;5116332;28;20020;-83
2022/09/03 17:11:01;;;;;;;5.03;2.00;;;22.30;99.90;;;;;;5114803;28;20475;-89
2022/09/03 17:14:00;;;;;;;3.55;1.70;;;22.30;99.90;;;;;;5116572;28;20028;-85
2022/09/03 17:16:40;;;;;;;2.03;1.40;;;22.10;99.90;;;;;;5114007;28;20368;-85
2022/09/03 17:20:01;;;;;;;1.63;1.08;;;22.10;99.90;;;;;;5114036;28;20047;-87
2022/09/03 17:22:50;;;;;;;2.00;1.30;;;22.10;99.90;;;;;;5115303;28;20054;-85
2022/09/03 17:25:38;;;;;;;1.95;1.10;;;22.10;99.90;;;;;;5113595;28;20035;-86
2022/09/03 17:28:40;;;;;;;2.10;1.77;;;22.10;99.90;;;;;;5113660;28;20023;-84
2022/09/03 17:31:16;;;;;;;2.47;1.90;;;22.10;99.90;;;;;;5081474;28;20039;-86
2022/09/03 17:34:19;;;;;;;4.05;2.08;;;22.10;99.90;;;;;;5113999;28;20012;-85
2022/09/03 17:37:07;;;;;;;2.92;1.30;;;22.20;99.90;;;;;;5113295;28;20027;-85
2022/09/03 17:39:46;;;;;;;2.33;1.40;;;22.20;99.90;;;;;;5113219;28;20036;-85
2022/09/03 17:42:19;;;;;;;2.90;1.42;;;22.20;99.90;;;;;;5113784;28;20436;-84
2022/09/03 17:44:51;;;;;;;2.80;1.70;;;22.10;99.90;;;;;;5113917;28;20128;-83
2022/09/03 17:47:48;;;;;;;5.32;2.00;;;22.10;99.90;;;;;;5114281;28;20487;-83
2022/09/03 17:50:31;;;;;;;1.27;1.10;;;22.20;99.90;;;;;;5114975;28;20410;-82
2022/09/03 17:53:02;;;;;;;1.65;1.30;;;22.00;99.90;;;;;;5116238;28;20031;-84
2022/09/03 17:55:50;;;;;;;1.70;1.60;;;22.10;99.90;;;;;;5116447;28;20122;-84
2022/09/03 17:58:21;;;;;;;;;;;22.10;99.90;;;;;;5116648;28;20569;-83
2022/09/03 18:01:25;;;;;;;2.63;1.13;;;22.20;99.90;;;;;;5117320;28;19904;-83
2022/09/03 18:04:09;;;;;;;2.60;1.40;;;22.20;99.90;;;;;;5115906;28;20074;-82
2022/09/03 18:06:53;;;;;;;2.97;1.48;;;22.30;99.90;;;;;;5115789;28;20016;-82
2022/09/03 18:09:23;;;;;;;2.90;1.00;;;22.30;99.90;;;;;;5114270;28;20020;-82
2022/09/03 18:12:11;;;;;;;2.53;1.33;;;22.20;99.90;;;;;;5114532;28;20471;-82
2022/09/03 18:14:50;;;;;;;2.70;1.40;;;22.00;99.90;;;;;;5115208;28;20055;-82
2022/09/03 18:17:24;;;;;;;3.88;1.10;;;22.00;99.90;;;;;;5115475;28;20049;-82
2022/09/03 20:11:28;;;;;;;4.60;2.85;;;21.00;99.90;;;;;;5057367;28;20028;-82
2022/09/03 20:14:14;;;;;;;4.45;3.00;;;20.90;99.90;;;;;;5057006;28;20055;-82
2022/09/03 20:17:04;;;;;;;10.55;5.20;;;20.70;99.90;;;;;;5056945;28;20037;-82
2022/09/03 20:19:30;;;;;;;6.28;3.53;;;20.60;99.90;;;;;;5102539;28;20042;-82
2022/09/03 20:22:27;;;;;;;10.00;5.25;;;20.60;99.90;;;;;;5117005;28;20523;-82
2022/09/03 20:25:03;;;;;;;3.80;3.15;;;20.60;99.90;;;;;;5115914;28;20402;-82
2022/09/03 20:27:42;;;;;;;6.10;3.03;;;20.60;99.90;;;;;;5116596;28;20089;-82
2022/09/03 20:30:40;;;;;;;4.03;2.50;;;20.60;99.90;;;;;;5116001;28;20035;-82
2022/09/03 20:33:20;;;;;;;3.78;2.63;;;20.60;99.90;;;;;;5095322;28;20028;-82
2022/09/03 20:36:00;;;;;;;4.63;2.20;;;20.50;99.90;;;;;;5116091;28;20027;-82
2022/09/03 20:38:55;;;;;;;3.70;2.70;;;20.50;99.90;;;;;;5115559;28;20031;-82
2022/09/03 20:41:24;;;;;;;4.35;3.05;;;20.40;99.90;;;;;;5114718;28;20035;-82
2022/09/03 20:44:15;;;;;;;4.53;2.75;;;20.30;99.90;;;;;;5116117;28;20034;-82
2022/09/03 20:46:58;;;;;;;9.60;2.85;;;20.30;99.90;;;;;;5115785;28;20472;-82
2022/09/03 20:49:30;;;;;;;3.70;2.35;;;20.20;99.90;;;;;;5114471;28;20023;-81
2022/09/03 20:52:06;;;;;;;5.03;3.13;;;20.20;99.90;;;;;;5115750;28;20385;-81
2022/09/03 20:54:38;;;;;;;5.35;2.83;;;20.10;99.90;;;;;;5114480;28;20042;-81
2022/09/03 20:57:09;;;;;;;6.70;3.35;;;20.10;99.90;;;;;;5114619;28;20024;-82
2022/09/03 20:59:50;;;;;;;6.00;3.33;;;20.10;99.90;;;;;;5115941;28;20024;-82
2022/09/03 21:02:33;;;;;;;6.15;3.20;;;20.20;99.90;;;;;;5116014;28;20468;-82
2022/09/03 21:05:33;;;;;;;5.82;3.30;;;20.20;99.90;;;;;;5116013;28;20028;-82
2022/09/03 21:08:21;;;;;;;7.00;3.30;;;20.20;99.90;;;;;;5115881;28;20031;-82
2022/09/03 21:11:14;;;;;;;4.07;2.90;;;20.30;99.90;;;;;;5116123;28;20046;-81
2022/09/03 21:13:45;;;;;;;4.05;3.25;;;20.30;99.90;;;;;;5117460;28;20020;-81
2022/09/03 21:16:33;;;;;;;8.68;6.13;;;20.30;99.90;;;;;;5114457;28;20034;-82
2022/09/03 21:19:18;;;;;;;4.78;3.33;;;20.30;99.90;;;;;;5124065;28;20015;-81
2022/09/03 21:21:50;;;;;;;5.47;3.60;;;20.20;99.90;;;;;;5115334;28;20020;-81
2022/09/03 21:24:25;;;;;;;7.55;3.70;;;20.20;99.90;;;;;;5115451;28;20075;-81
2022/09/03 21:26:59;;;;;;;6.47;3.70;;;20.20;99.90;;;;;;5115928;28;20066;-81
2022/09/03 21:29:25;;;;;;;6.72;3.83;;;20.30;99.90;;;;;;5113965;28;20019;-81
2022/09/03 21:32:08;;;;;;;6.45;3.47;;;20.30;99.90;;;;;;5113862;28;20122;-81
2022/09/03 21:34:53;;;;;;;4.00;3.50;;;20.30;99.90;;;;;;5114721;28;20028;-81
2022/09/03 21:37:21;;;;;;;6.65;3.72;;;20.30;99.90;;;;;;5113438;28;20027;-82
2022/09/03 21:39:55;;;;;;;5.07;3.60;;;20.20;99.90;;;;;;5115171;28;20020;-82
2022/09/03 21:42:40;;;;;;;5.63;3.55;;;20.30;99.90;;;;;;5113927;28;20027;-82
2022/09/03 21:45:10;;;;;;;6.22;3.60;;;20.20;99.90;;;;;;5115100;28;20361;-82
2022/09/03 21:47:46;;;;;;;4.95;3.45;;;20.20;99.90;;;;;;5114981;28;20020;-82
2022/09/03 21:50:21;;;;;;;10.27;3.50;;;20.10;99.90;;;;;;5113476;28;20020;-82
2022/09/03 21:53:34;;;;;;;6.53;3.30;;;20.20;99.90;;;;;;5114779;28;20114;-82
2022/09/03 21:56:20;;;;;;;6.90;3.75;;;20.20;99.90;;;;;;5051915;28;20473;-82
2022/09/03 21:59:02;;;;;;;7.97;4.82;;;20.10;99.90;;;;;;5036354;28;20033;-82
2022/09/03 22:01:59;;;;;;;6.90;4.60;;;19.90;99.90;;;;;;5053496;28;20082;-82
2022/09/03 22:04:25;;;;;;;7.18;5.72;;;19.90;99.90;;;;;;5052394;28;20040;-82
2022/09/03 22:07:04;;;;;;;9.35;5.45;;;20.00;99.90;;;;;;5036471;28;20029;-82
2022/09/03 22:09:51;;;;;;;8.65;5.22;;;19.90;99.90;;;;;;5053646;28;20029;-82
2022/09/03 22:12:31;;;;;;;8.23;5.80;;;19.90;99.90;;;;;;5053794;28;20033;-82
2022/09/03 22:14:57;;;;;;;12.50;6.30;;;19.80;99.90;;;;;;5053167;28;20075;-82
2022/09/03 22:17:42;;;;;;;;;;;19.90;99.90;;;;;;5053573;28;20051;-82
2022/09/03 22:20:10;;;;;;;8.75;6.03;;;19.60;99.90;;;;;;5037238;28;19908;-82
2022/09/03 22:22:46;;;;;;;9.63;5.57;;;19.60;99.90;;;;;;5054170;28;20104;-81
2022/09/03 22:25:51;;;;;;;9.45;5.10;;;19.50;99.90;;;;;;5037146;28;20021;-82
2022/09/03 22:28:28;;;;;;;8.23;4.47;;;19.50;99.90;;;;;;5111170;28;20472;-81
2022/09/03 22:30:57;;;;;;;;;;;19.40;99.90;;;;;;5115193;28;20035;-82
2022/09/03 22:33:34;;;;;;;7.85;5.10;;;19.40;99.90;;;;;;5115524;28;19911;-82
2022/09/03 22:36:13;;;;;;;8.15;4.80;;;19.40;99.90;;;;;;5114007;28;20072;-82
2022/09/03 22:38:54;;;;;;;6.50;3.88;;;19.40;99.90;;;;;;5119353;28;20065;-82
2022/09/03 22:42:03;;;;;;;8.05;4.88;;;19.20;99.90;;;;;;5119522;28;20047;-82
2022/09/03 22:44:58;;;;;;;7.75;4.50;;;19.10;99.90;;;;;;5056626;28;20179;-82
2022/09/03 22:47:50;;;;;;;8.27;4.57;;;19.20;99.90;;;;;;5119339;28;20032;-82
2022/09/03 22:50:40;;;;;;;9.80;4.88;;;19.20;99.90;;;;;;5118474;28;20023;-82
2022/09/03 22:53:42;;;;;;;9.30;4.10;;;19.00;99.90;;;;;;5117868;28;20107;-82
2022/09/03 22:56:11;;;;;;;6.45;3.95;;;19.00;99.90;;;;;;5119285;28;20080;-82
2022/09/03 22:58:48;;;;;;;8.70;4.38;;;19.00;99.90;;;;;;5118421;28;20031;-82
2022/09/03 23:01:14;;;;;;;4.82;3.67;;;19.00;99.90;;;;;;5118038;28;20104;-82
2022/09/03 23:03:52;;;;;;;6.43;4.53;;;18.90;99.90;;;;;;5119669;28;20506;-82
2022/09/03 23:06:31;;;;;;;7.35;3.90;;;18.90;99.90;;;;;;5118347;28;20265;-81
2022/09/03 23:09:22;;;;;;;4.88;3.78;;;18.90;99.90;;;;;;5117373;28;20023;-81
2022/09/03 23:11:52;;;;;;;5.88;3.70;;;18.90;99.90;;;;;;5108760;28;20035;-82
2022/09/03 23:14:31;;;;;;;5.07;3.88;;;18.80;99.90;;;;;;5117007;28;20031;-82
2022/09/03 23:17:08;;;;;;;7.35;3.88;;;18.70;99.90;;;;;;5117764;28;20035;-82
2022/09/03 23:19:45;;;;;;;6.40;3.63;;;18.60;99.90;;;;;;5118069;28;20540;-82
2022/09/03 23:22:13;;;;;;;;;;;18.60;99.90;;;;;;5124373;28;20075;-81
2022/09/03 23:24:48;;;;;;;7.22;3.10;;;18.60;99.90;;;;;;5127138;28;19911;-81
2022/09/03 23:27:29;;;;;;;6.05;2.72;;;18.50;99.90;;;;;;5118162;28;20019;-82
2022/09/03 23:29:59;;;;;;;5.18;3.00;;;18.50;99.90;;;;;;5119615;28;20032;-82
2022/09/03 23:32:27;;;;;;;4.00;2.42;;;18.60;99.90;;;;;;5117889;28;20034;-82
2022/09/03 23:34:55;;;;;;;5.82;2.72;;;18.70;99.90;;;;;;5117703;28;20085;-82
2022/09/03 23:37:40;;;;;;;2.75;2.42;;;18.60;99.90;;;;;;5117599;28;20020;-82
2022/09/03 23:40:11;;;;;;;6.80;2.80;;;18.60;99.90;;;;;;5118921;28;20030;-81
2022/09/03 23:42:57;;;;;;;3.45;2.78;;;18.50;99.90;;;;;;5119147;27;20068;-81
2022/09/03 23:45:28;;;;;;;3.83;2.35;;;18.50;99.90;;;;;;5117247;28;20047;-81
2022/09/03 23:48:33;;;;;;;4.70;2.58;;;18.50;99.90;;;;;;5118163;28;20081;-81
2022/09/03 23:51:37;;;;;;;4.43;2.42;;;18.60;99.90;;;;;;5118290;28;20030;-81
2022/09/03 23:54:05;;;;;;;4.72;3.38;;;18.50;99.90;;;;;;5118281;28;20023;-81
2022/09/03 23:56:48;;;;;;;3.65;2.65;;;18.50;99.90;;;;;;5116339;28;20023;-81
2022/09/03 23:59:31;;;;;;;6.07;2.83;;;18.40;99.90;;;;;;5118207;28;20487;-81
